createdAt,value
2023-05-20T00:02:20.607Z,4.60
2023-05-20T00:05:18.756Z,3.60
2023-05-20T00:07:53.914Z,3.80
2023-05-20T00:10:29.426Z,3.40
2023-05-20T00:20:55.251Z,3.80
2023-05-20T00:27:34.646Z,3.10
2023-05-20T00:33:37.926Z,2.90
2023-05-20T00:36:27.118Z,3.90
2023-05-20T00:39:07.885Z,3.90
2023-05-20T00:41:35.801Z,3.20
2023-05-20T00:44:34.206Z,6.40
2023-05-20T00:48:42.184Z,3.10
2023-05-20T00:51:26.303Z,4.70
2023-05-20T00:53:54.751Z,3.90
2023-05-20T00:56:22.948Z,3.20
2023-05-20T00:58:53.711Z,4.20
2023-05-20T01:01:21.690Z,3.30
2023-05-20T01:05:12.952Z,3.10
2023-05-20T01:07:41.699Z,4.20
2023-05-20T01:10:09.373Z,4.10
2023-05-20T01:12:43.486Z,3.00
2023-05-20T01:15:12.752Z,3.20
2023-05-20T01:17:46.245Z,2.40
2023-05-20T01:20:14.832Z,3.80
2023-05-20T01:22:55.509Z,2.70
2023-05-20T01:25:24.395Z,3.50
2023-05-20T01:27:53.801Z,4.50
2023-05-20T01:30:22.164Z,3.30
2023-05-20T01:33:02.000Z,5.00
2023-05-20T01:37:58.384Z,4.30
2023-05-20T01:40:27.388Z,4.30
2023-05-20T01:42:55.695Z,3.10
2023-05-20T01:45:23.963Z,3.00
2023-05-20T01:47:51.289Z,3.90
2023-05-20T01:50:18.667Z,5.10
2023-05-20T01:52:45.715Z,4.60
2023-05-20T01:55:12.612Z,3.90
2023-05-20T01:57:39.915Z,4.30
2023-05-20T02:00:07.665Z,3.60
2023-05-20T02:02:34.558Z,4.10
2023-05-20T02:05:01.468Z,3.30
2023-05-20T02:07:28.443Z,5.00
2023-05-20T02:09:55.385Z,3.20
2023-05-20T02:12:22.284Z,3.90
2023-05-20T02:14:49.953Z,3.60
2023-05-20T02:17:17.348Z,5.30
2023-05-20T02:19:45.628Z,5.90
2023-05-20T02:22:13.489Z,3.30
2023-05-20T02:24:40.402Z,3.90
2023-05-20T02:27:07.588Z,4.80
2023-05-20T02:29:34.727Z,2.90
2023-05-20T02:32:01.652Z,2.50
2023-05-20T02:34:30.510Z,3.80
2023-05-20T02:36:57.559Z,4.30
2023-05-20T02:39:24.466Z,4.60
2023-05-20T02:41:51.395Z,2.60
2023-05-20T02:44:18.339Z,3.10
2023-05-20T02:46:45.368Z,3.60
2023-05-20T02:49:12.275Z,3.00
2023-05-20T02:51:40.351Z,4.60
2023-05-20T02:54:07.330Z,3.80
2023-05-20T02:56:34.216Z,3.20
2023-05-20T02:59:01.242Z,3.90
2023-05-20T03:01:28.687Z,3.40
2023-05-20T03:03:55.726Z,4.40
2023-05-20T03:06:22.773Z,2.90
2023-05-20T03:08:49.771Z,6.00
2023-05-20T03:11:16.754Z,4.10
2023-05-20T03:13:43.730Z,3.60
2023-05-20T03:16:12.576Z,2.80
2023-05-20T03:18:39.569Z,4.00
2023-05-20T03:21:06.565Z,3.10
2023-05-20T03:23:33.583Z,3.70
2023-05-20T03:26:01.212Z,4.90
2023-05-20T03:28:28.175Z,4.70
2023-05-20T03:30:55.722Z,4.40
2023-05-20T03:33:25.583Z,4.00
2023-05-20T03:35:52.560Z,6.60
2023-05-20T03:38:19.608Z,2.70
2023-05-20T03:40:46.485Z,4.00
2023-05-20T03:43:13.442Z,3.30
2023-05-20T03:45:40.570Z,3.40
2023-05-20T03:48:07.519Z,3.00
2023-05-20T03:50:34.570Z,4.10
2023-05-20T03:53:01.504Z,2.70
2023-05-20T03:55:28.401Z,3.90
2023-05-20T03:57:55.541Z,3.20
2023-05-20T04:00:22.616Z,4.20
2023-05-20T04:02:49.614Z,3.80
2023-05-20T04:05:16.726Z,4.80
2023-05-20T04:07:44.217Z,3.80
2023-05-20T04:10:11.375Z,5.60
2023-05-20T04:12:38.394Z,5.00
2023-05-20T04:15:06.295Z,4.40
2023-05-20T04:17:33.435Z,3.80
2023-05-20T04:20:00.460Z,4.30
2023-05-20T04:22:27.431Z,4.10
2023-05-20T04:24:54.319Z,4.20
2023-05-20T04:27:21.244Z,3.50
2023-05-20T04:29:48.296Z,3.00
2023-05-20T04:32:18.145Z,3.70
2023-05-20T04:34:46.337Z,2.90
2023-05-20T04:37:13.573Z,2.80
2023-05-20T04:39:43.082Z,4.20
2023-05-20T04:42:10.248Z,3.10
2023-05-20T04:44:37.544Z,5.20
2023-05-20T04:47:07.407Z,3.00
2023-05-20T04:49:34.410Z,4.30
2023-05-20T04:52:01.403Z,3.40
2023-05-20T04:54:28.252Z,5.60
2023-05-20T04:56:55.173Z,3.00
2023-05-20T04:59:22.207Z,3.40
2023-05-20T05:01:49.171Z,5.70
2023-05-20T05:04:16.482Z,3.90
2023-05-20T05:06:43.505Z,4.20
2023-05-20T05:09:10.520Z,3.40
2023-05-20T05:11:37.468Z,4.10
2023-05-20T05:14:04.719Z,4.70
2023-05-20T05:16:31.746Z,5.80
2023-05-20T05:18:58.703Z,4.40
2023-05-20T05:21:25.952Z,4.30
2023-05-20T05:23:52.897Z,3.50
2023-05-20T05:26:20.551Z,3.10
2023-05-20T05:28:47.474Z,4.50
2023-05-20T05:31:14.419Z,3.80
2023-05-20T05:33:41.558Z,3.80
2023-05-20T05:36:08.431Z,3.80
2023-05-20T05:38:35.823Z,4.80
2023-05-20T05:41:02.796Z,5.30
2023-05-20T05:43:29.694Z,9.20
2023-05-20T05:45:56.711Z,4.70
2023-05-20T05:48:23.895Z,2.90
2023-05-20T05:50:50.896Z,3.90
2023-05-20T05:53:17.927Z,3.10
2023-05-20T05:55:47.614Z,4.80
2023-05-20T05:58:14.571Z,7.20
2023-05-20T06:00:41.704Z,7.10
2023-05-20T06:03:08.830Z,17.40
2023-05-20T06:05:40.487Z,5.20
2023-05-20T06:08:08.278Z,3.70
2023-05-20T06:10:35.341Z,3.90
2023-05-20T06:13:02.248Z,4.60
2023-05-20T06:15:29.240Z,4.10
2023-05-20T06:17:56.408Z,4.50
2023-05-20T06:20:23.317Z,3.40
2023-05-20T06:22:50.548Z,3.90
2023-05-20T06:25:17.589Z,2.50
2023-05-20T06:27:44.494Z,12.00
2023-05-20T06:30:11.967Z,6.10
2023-05-20T06:32:38.919Z,4.70
2023-05-20T06:35:06.143Z,2.40
2023-05-20T06:37:33.219Z,5.10
2023-05-20T06:40:00.217Z,7.30
2023-05-20T06:42:27.087Z,4.30
2023-05-20T06:44:54.050Z,2.60
2023-05-20T06:47:21.492Z,3.00
2023-05-20T06:49:48.417Z,4.40
2023-05-20T06:52:15.373Z,5.40
2023-05-20T06:54:42.706Z,7.00
2023-05-20T06:57:10.357Z,5.00
2023-05-20T06:59:37.423Z,2.80
2023-05-20T07:02:05.326Z,3.70
2023-05-20T07:04:32.275Z,2.60
2023-05-20T07:06:59.286Z,3.70
2023-05-20T07:09:26.192Z,2.90
2023-05-20T07:11:53.113Z,3.80
2023-05-20T07:14:20.154Z,2.50
2023-05-20T07:16:47.356Z,3.20
2023-05-20T07:19:14.343Z,4.80
2023-05-20T07:21:41.426Z,4.50
2023-05-20T07:24:08.404Z,4.50
2023-05-20T07:26:36.078Z,5.30
2023-05-20T07:29:04.514Z,5.90
2023-05-20T07:31:31.598Z,6.00
2023-05-20T07:33:58.821Z,7.70
2023-05-20T07:36:27.107Z,4.70
2023-05-20T07:39:02.460Z,3.20
2023-05-20T07:41:30.559Z,3.30
2023-05-20T07:43:57.570Z,3.70
2023-05-20T07:46:24.932Z,5.30
2023-05-20T07:48:52.172Z,3.10
2023-05-20T07:51:19.186Z,2.80
2023-05-20T07:53:46.179Z,10.40
2023-05-20T07:56:13.302Z,3.70
2023-05-20T07:58:43.379Z,3.80
2023-05-20T08:01:11.128Z,4.50
2023-05-20T08:03:38.313Z,12.00
2023-05-20T08:06:05.567Z,4.60
2023-05-20T08:08:32.721Z,3.90
2023-05-20T08:11:01.123Z,2.50
2023-05-20T08:13:28.012Z,4.30
2023-05-20T08:15:55.038Z,5.70
2023-05-20T08:18:22.888Z,2.40
2023-05-20T08:20:50.479Z,3.60
2023-05-20T08:23:17.862Z,3.90
2023-05-20T08:25:46.363Z,3.10
2023-05-20T08:28:13.681Z,3.00
2023-05-20T08:30:41.049Z,4.30
2023-05-20T08:33:08.224Z,6.00
2023-05-20T08:35:35.968Z,2.70
2023-05-20T08:38:03.046Z,3.70
2023-05-20T08:40:30.024Z,3.90
2023-05-20T08:42:58.744Z,3.90
2023-05-20T08:45:28.040Z,3.30
2023-05-20T08:47:55.370Z,3.40
2023-05-20T08:50:22.632Z,4.00
2023-05-20T08:52:49.735Z,3.60
2023-05-20T08:55:34.369Z,3.50
2023-05-20T08:58:02.820Z,2.40
2023-05-20T09:00:30.022Z,2.70
2023-05-20T09:03:00.745Z,3.90
2023-05-20T09:05:28.573Z,4.10
2023-05-20T09:08:11.582Z,3.20
2023-05-20T09:10:40.131Z,20.50
2023-05-20T09:13:08.480Z,15.30
2023-05-20T09:15:36.667Z,5.40
2023-05-20T09:18:05.582Z,3.30
2023-05-20T09:20:36.718Z,3.20
2023-05-20T09:23:05.954Z,3.80
2023-05-20T09:25:34.064Z,4.60
2023-05-20T09:28:05.163Z,2.70
2023-05-20T09:30:32.468Z,3.60
2023-05-20T09:33:00.941Z,3.80
2023-05-20T09:35:28.221Z,7.40
2023-05-20T09:37:56.539Z,4.90
2023-05-20T09:40:25.885Z,3.20
2023-05-20T09:43:04.030Z,3.90
2023-05-20T09:45:31.077Z,3.60
2023-05-20T09:48:00.939Z,4.70
2023-05-20T09:50:36.630Z,8.00
2023-05-20T09:53:06.149Z,5.40
2023-05-20T09:55:34.100Z,14.10
2023-05-20T09:58:10.743Z,3.70
2023-05-20T10:00:39.493Z,6.20
2023-05-20T10:03:07.807Z,7.70
2023-05-20T10:05:52.760Z,6.10
2023-05-20T10:08:21.875Z,4.80
2023-05-20T10:11:07.707Z,4.80
2023-05-20T10:14:08.605Z,4.60
2023-05-20T10:16:49.689Z,5.70
2023-05-20T10:19:31.151Z,11.10
2023-05-20T10:22:28.680Z,4.70
2023-05-20T10:25:02.140Z,8.50
2023-05-20T10:27:29.829Z,5.50
2023-05-20T10:30:22.097Z,5.60
2023-05-20T10:32:58.510Z,5.40
2023-05-20T10:35:28.409Z,5.60
2023-05-20T10:40:49.478Z,6.10
2023-05-20T10:43:28.174Z,5.70
2023-05-20T10:45:57.504Z,8.00
2023-05-20T11:01:42.847Z,4.50
2023-05-20T11:04:10.358Z,3.40
2023-05-20T11:06:37.397Z,8.80
2023-05-20T11:09:08.530Z,5.80
2023-05-20T11:11:38.070Z,5.40
2023-05-20T11:14:05.908Z,3.30
2023-05-20T11:16:32.896Z,5.60
2023-05-20T11:18:59.915Z,4.40
2023-05-20T11:21:27.036Z,4.50
2023-05-20T11:23:54.110Z,6.20
2023-05-20T11:26:21.842Z,5.30
2023-05-20T11:28:49.141Z,4.60
2023-05-20T11:31:16.369Z,5.40
2023-05-20T11:33:43.462Z,4.10
2023-05-20T11:36:23.792Z,3.70
2023-05-20T11:38:54.903Z,5.60
2023-05-20T11:41:26.276Z,4.60
2023-05-20T11:43:58.452Z,4.30
2023-05-20T11:46:25.886Z,6.20
2023-05-20T11:48:56.802Z,5.90
2023-05-20T11:51:27.572Z,6.70
2023-05-20T11:54:05.512Z,5.30
2023-05-20T11:56:36.906Z,5.10
2023-05-20T11:59:05.578Z,4.80
2023-05-20T12:01:37.294Z,4.00
2023-05-20T12:04:05.063Z,3.80
2023-05-20T12:06:32.217Z,4.10
2023-05-20T12:09:08.132Z,4.40
2023-05-20T12:11:37.235Z,5.20
2023-05-20T12:14:04.298Z,5.70
2023-05-20T12:16:33.136Z,5.40
2023-05-20T12:19:00.774Z,6.30
2023-05-20T12:21:29.091Z,5.50
2023-05-20T12:23:57.372Z,6.20
2023-05-20T12:26:26.233Z,6.20
2023-05-20T12:28:54.017Z,4.60
2023-05-20T12:31:21.084Z,3.40
2023-05-20T12:33:48.055Z,4.70
2023-05-20T12:36:15.089Z,5.80
2023-05-20T12:38:42.208Z,4.30
2023-05-20T12:41:09.547Z,4.60
2023-05-20T12:43:37.157Z,3.60
2023-05-20T12:46:05.335Z,4.50
2023-05-20T12:48:32.443Z,12.40
2023-05-20T12:50:59.846Z,3.50
2023-05-20T12:53:26.882Z,6.00
2023-05-20T12:55:56.008Z,4.60
2023-05-20T12:58:23.267Z,4.70
2023-05-20T13:00:50.262Z,6.60
2023-05-20T13:03:17.399Z,10.90
2023-05-20T13:05:44.626Z,11.80
2023-05-20T13:08:12.372Z,4.60
2023-05-20T13:10:39.593Z,5.70
2023-05-20T13:13:06.514Z,4.50
2023-05-20T13:15:33.776Z,8.50
2023-05-20T13:18:01.255Z,4.70
2023-05-20T13:20:29.489Z,4.90
2023-05-20T13:22:56.437Z,6.30
2023-05-20T13:25:23.509Z,6.20
2023-05-20T13:27:51.211Z,4.40
2023-05-20T13:30:18.105Z,6.30
2023-05-20T13:32:46.354Z,4.40
2023-05-20T13:35:14.106Z,5.30
2023-05-20T13:37:41.024Z,3.30
2023-05-20T13:40:09.102Z,4.90
2023-05-20T13:42:36.585Z,6.10
2023-05-20T13:45:04.251Z,3.50
2023-05-20T13:47:31.980Z,3.30
2023-05-20T13:50:01.386Z,4.30
2023-05-20T13:52:30.433Z,4.80
2023-05-20T13:54:57.479Z,4.90
2023-05-20T13:57:24.381Z,6.60
2023-05-20T13:59:51.313Z,6.90
2023-05-20T14:02:18.571Z,5.30
2023-05-20T14:04:46.541Z,4.30
2023-05-20T14:07:13.687Z,4.30
2023-05-20T14:09:40.794Z,30.10
2023-05-20T14:12:07.923Z,4.80
2023-05-20T14:14:35.143Z,5.10
2023-05-20T14:17:02.178Z,4.10
2023-05-20T14:19:29.479Z,7.20
2023-05-20T14:21:58.349Z,6.10
2023-05-20T14:24:25.327Z,12.50
2023-05-20T14:26:53.127Z,5.70
2023-05-20T14:29:20.198Z,5.60
2023-05-20T14:31:47.391Z,5.40
2023-05-20T14:34:14.379Z,6.50
2023-05-20T14:36:41.627Z,5.70
2023-05-20T14:39:09.200Z,5.20
2023-05-20T14:41:36.149Z,6.00
2023-05-20T14:44:03.199Z,5.30
2023-05-20T14:46:30.326Z,6.80
2023-05-20T14:48:57.448Z,5.80
2023-05-20T14:51:24.641Z,4.50
2023-05-20T14:53:51.535Z,5.80
2023-05-20T14:56:18.475Z,4.70
2023-05-20T14:58:45.513Z,5.10
2023-05-20T15:01:12.533Z,5.50
2023-05-20T15:03:39.454Z,8.00
2023-05-20T15:06:06.620Z,28.80
2023-05-20T15:08:33.506Z,5.30
2023-05-20T15:11:00.762Z,4.50
2023-05-20T15:13:27.781Z,4.90
2023-05-20T15:15:54.670Z,6.40
2023-05-20T15:18:21.918Z,7.80
2023-05-20T15:20:48.977Z,7.20
2023-05-20T15:23:17.227Z,7.40
2023-05-20T15:25:44.174Z,4.90
2023-05-20T15:28:11.188Z,5.50
2023-05-20T15:30:38.199Z,7.10
2023-05-20T15:33:05.423Z,8.40
2023-05-20T15:35:32.524Z,13.10
2023-05-20T15:37:59.499Z,12.70
2023-05-20T15:40:27.613Z,10.10
2023-05-20T15:42:54.639Z,18.20
2023-05-20T15:45:21.533Z,10.00
2023-05-20T15:47:48.751Z,11.60
2023-05-20T15:50:15.784Z,18.30
2023-05-20T15:52:42.817Z,20.20
2023-05-20T15:55:10.562Z,11.80
2023-05-20T15:57:37.560Z,11.50
2023-05-20T16:00:09.955Z,11.60
2023-05-20T16:02:38.124Z,10.80
2023-05-20T16:05:06.119Z,13.90
2023-05-20T16:07:33.044Z,7.20
2023-05-20T16:10:00.290Z,8.60
2023-05-20T16:12:27.302Z,33.00
2023-05-20T16:14:54.184Z,17.10
2023-05-20T16:17:21.329Z,29.70
2023-05-20T16:19:49.060Z,22.70
2023-05-20T16:22:18.512Z,11.30
2023-05-20T16:27:12.438Z,10.60
2023-05-20T16:29:39.437Z,16.90
2023-05-20T16:32:06.879Z,20.80
2023-05-20T16:34:34.034Z,14.90
2023-05-20T16:37:00.902Z,22.60
2023-05-20T16:39:27.933Z,21.30
2023-05-20T16:41:55.618Z,19.60
2023-05-20T16:44:22.728Z,10.00
2023-05-20T16:46:51.872Z,9.50
2023-05-20T16:49:20.664Z,14.20
2023-05-20T16:51:47.713Z,23.30
2023-05-20T16:54:14.703Z,12.80
2023-05-20T16:56:41.622Z,16.20
2023-05-20T16:59:08.498Z,18.00
2023-05-20T17:01:36.324Z,13.20
2023-05-20T17:04:03.439Z,8.90
2023-05-20T17:06:33.533Z,11.60
2023-05-20T17:09:03.176Z,11.00
2023-05-20T17:11:30.210Z,16.30
2023-05-20T17:13:57.213Z,9.70
2023-05-20T17:16:24.390Z,8.30
2023-05-20T17:18:52.953Z,9.90
2023-05-20T17:21:20.107Z,13.60
2023-05-20T17:23:47.171Z,14.90
2023-05-20T17:26:14.954Z,14.20
2023-05-20T17:28:42.461Z,18.00
2023-05-20T17:31:09.472Z,13.80
2023-05-20T17:33:36.642Z,9.10
2023-05-20T17:36:03.796Z,9.00
2023-05-20T17:38:30.865Z,7.80
2023-05-20T17:40:57.914Z,14.00
2023-05-20T17:43:25.159Z,17.70
2023-05-20T17:45:52.266Z,16.30
2023-05-20T17:48:19.521Z,11.30
2023-05-20T17:50:46.540Z,18.10
2023-05-20T17:53:13.455Z,20.10
2023-05-20T17:55:40.546Z,24.90
2023-05-20T17:58:07.466Z,18.70
2023-05-20T18:00:41.385Z,15.50
2023-05-20T18:03:09.700Z,15.40
2023-05-20T18:05:37.174Z,13.60
2023-05-20T18:08:04.429Z,13.00
2023-05-20T18:10:31.445Z,10.40
2023-05-20T18:12:58.363Z,10.40
2023-05-20T18:15:25.335Z,15.40
2023-05-20T18:17:52.366Z,14.30
2023-05-20T18:20:20.001Z,12.90
2023-05-20T18:22:47.473Z,20.40
2023-05-20T18:25:14.952Z,21.00
2023-05-20T18:27:42.344Z,18.80
2023-05-20T18:30:09.584Z,11.70
2023-05-20T18:32:37.921Z,14.00
2023-05-20T18:35:05.436Z,13.70
2023-05-20T18:37:32.630Z,13.40
2023-05-20T18:39:59.734Z,12.20
2023-05-20T18:42:26.733Z,14.30
2023-05-20T18:44:53.829Z,15.30
2023-05-20T18:47:20.960Z,16.30
2023-05-20T18:49:48.549Z,17.90
2023-05-20T18:52:15.750Z,12.00
2023-05-20T18:54:42.728Z,15.80
2023-05-20T18:57:09.715Z,15.40
2023-05-20T18:59:36.832Z,15.50
2023-05-20T19:02:03.966Z,15.00
2023-05-20T19:04:31.074Z,16.10
2023-05-20T19:06:58.910Z,12.80
2023-05-20T19:09:25.819Z,16.20
2023-05-20T19:11:56.244Z,16.20
2023-05-20T19:14:23.533Z,14.70
2023-05-20T19:16:51.295Z,15.00
2023-05-20T19:19:18.293Z,12.40
2023-05-20T19:21:45.704Z,16.10
2023-05-20T19:24:12.643Z,14.70
2023-05-20T19:26:58.304Z,9.30
2023-05-20T19:29:25.767Z,11.40
2023-05-20T19:40:47.915Z,11.50
2023-05-20T20:01:04.720Z,17.80
2023-05-20T20:43:08.872Z,14.30
2023-05-20T20:45:38.727Z,14.70
2023-05-20T20:50:35.223Z,14.50
2023-05-20T20:53:02.759Z,13.10
2023-05-20T20:55:33.827Z,11.40
2023-05-20T20:58:04.681Z,12.40
2023-05-20T21:00:33.266Z,11.00
2023-05-20T21:03:00.274Z,10.50
2023-05-20T21:05:28.529Z,9.70
2023-05-20T21:07:58.997Z,8.10
2023-05-20T21:10:29.304Z,10.20
2023-05-20T21:12:57.527Z,9.50
2023-05-20T21:15:25.804Z,13.60
2023-05-20T21:17:53.322Z,26.90
2023-05-20T21:20:21.755Z,33.80
2023-05-20T21:23:23.331Z,29.70
2023-05-20T21:25:54.235Z,21.40
2023-05-20T21:28:21.359Z,19.80
2023-05-20T22:30:21.406Z,9.50
2023-05-20T22:33:32.491Z,9.70
2023-05-20T22:36:20.910Z,10.10
2023-05-20T22:57:21.316Z,11.30
2023-05-20T23:00:01.551Z,9.60
2023-05-20T23:02:50.319Z,9.20
2023-05-20T23:07:16.842Z,11.40
2023-05-20T23:10:07.957Z,10.10
2023-05-20T23:18:03.655Z,10.70
2023-05-20T23:31:58.577Z,10.40
2023-05-20T23:35:06.777Z,10.70
2023-05-20T23:38:03.397Z,10.60
2023-05-20T23:43:43.419Z,11.90
2023-05-20T23:51:11.056Z,11.80
2023-05-20T23:54:03.593Z,11.80
2023-05-20T23:56:48.707Z,11.70
